Time,TemperatureF,DewpointF,PressureIn,WindDirection,WindDirectionDegrees,WindSpeedMPH,WindSpeedGustMPH,Humidity,HourlyPrecipIn,Conditions,Clouds,dailyrainin,SoftwareType,DateUTC
2013-03-04 00:01:00,34.7,23.4,26.63,WNW,292,20.1,20.1,63,0.00,,,0.00,VWS V14.01,2013-03-04 07:01:00,
2013-03-04 00:06:00,34.5,23.2,26.63,NNW,338,17.6,20.1,63,0.00,,,0.00,VWS V14.01,2013-03-04 07:06:00,
2013-03-04 00:11:00,34.5,23.2,26.63,North,0,17.8,20.1,63,0.00,,,0.00,VWS V14.01,2013-03-04 07:11:00,
2013-03-04 00:16:00,34.5,23.2,26.63,NW,315,14.5,14.5,63,0.00,,,0.00,VWS V14.01,2013-03-04 07:16:00,
2013-03-04 00:21:00,34.3,23.4,26.64,NE,45,17.4,17.4,64,0.00,,,0.00,VWS V14.01,2013-03-04 07:21:00,
2013-03-04 00:26:00,34.1,23.2,26.64,WNW,292,10.2,17.4,64,0.00,,,0.00,VWS V14.01,2013-03-04 07:26:00,
2013-03-04 00:31:00,34.1,23.2,26.64,North,0,10.9,10.9,64,0.00,,,0.00,VWS V14.01,2013-03-04 07:31:00,
2013-03-04 00:36:00,33.8,23.3,26.64,NW,315,12.0,14.3,65,0.00,,,0.00,VWS V14.01,2013-03-04 07:36:00,
2013-03-04 00:41:00,33.6,23.1,26.65,North,0,16.5,20.1,65,0.00,,,0.00,VWS V14.01,2013-03-04 07:41:00,
2013-03-04 00:46:00,33.6,23.1,26.65,NW,315,9.1,9.1,65,0.00,,,0.00,VWS V14.01,2013-03-04 07:46:00,
2013-03-04 00:51:00,33.4,23.3,26.66,West,270,14.0,16.7,66,0.00,,,0.00,VWS V14.01,2013-03-04 07:51:00,
2013-03-04 00:56:00,33.2,23.1,26.66,NNE,22,12.0,16.7,66,0.00,,,0.00,VWS V14.01,2013-03-04 07:56:00,
2013-03-04 01:01:00,33.0,22.9,26.67,WNW,292,14.3,14.3,66,0.00,,,0.00,VWS V14.01,2013-03-04 08:01:00,
2013-03-04 01:06:00,33.0,22.5,26.68,NW,315,8.2,14.3,65,0.00,,,0.00,VWS V14.01,2013-03-04 08:06:00,
2013-03-04 01:11:00,33.0,22.5,26.68,NW,315,8.0,14.3,65,0.00,,,0.00,VWS V14.01,2013-03-04 08:11:00,
2013-03-04 01:16:00,33.0,22.5,26.68,NNW,338,7.6,7.6,65,0.00,,,0.00,VWS V14.01,2013-03-04 08:16:00,
2013-03-04 01:21:00,33.0,21.8,26.68,WNW,292,5.1,12.0,63,0.00,,,0.00,VWS V14.01,2013-03-04 08:21:00,
2013-03-04 01:26:00,33.0,21.8,26.68,North,0,12.0,12.0,63,0.00,,,0.00,VWS V14.01,2013-03-04 08:26:00,
2013-03-04 01:31:00,33.2,21.6,26.68,NNW,338,4.2,4.2,62,0.00,,,0.00,VWS V14.01,2013-03-04 08:31:00,
2013-03-04 01:36:00,33.2,21.2,26.68,NW,315,8.2,8.2,61,0.00,,,0.00,VWS V14.01,2013-03-04 08:36:00,
2013-03-04 01:41:00,33.2,21.2,26.68,NNW,338,6.0,8.2,61,0.00,,,0.00,VWS V14.01,2013-03-04 08:41:00,
2013-03-04 01:46:00,33.4,21.0,26.68,NW,315,10.5,10.5,60,0.00,,,0.00,VWS V14.01,2013-03-04 08:46:00,
2013-03-04 01:51:00,33.6,20.8,26.67,North,0,6.7,10.5,59,0.00,,,0.00,VWS V14.01,2013-03-04 08:51:00,
2013-03-04 01:57:00,33.6,20.8,26.67,NW,315,10.2,10.5,59,0.00,,,0.00,VWS V14.01,2013-03-04 08:57:00,
2013-03-04 02:02:00,33.6,20.8,26.67,North,0,8.7,10.9,59,0.00,,,0.00,VWS V14.01,2013-03-04 09:02:00,
2013-03-04 02:07:00,33.6,20.8,26.68,NNW,338,9.6,10.9,59,0.00,,,0.00,VWS V14.01,2013-03-04 09:07:00,
2013-03-04 02:12:00,33.6,20.8,26.68,West,270,3.5,10.9,59,0.00,,,0.00,VWS V14.01,2013-03-04 09:12:00,
2013-03-04 02:17:00,33.4,20.6,26.68,North,0,6.0,8.9,59,0.00,,,0.00,VWS V14.01,2013-03-04 09:17:00,
2013-03-04 02:22:00,33.4,20.6,26.67,NNE,22,1.5,8.9,59,0.00,,,0.00,VWS V14.01,2013-03-04 09:22:00,
2013-03-04 02:27:00,33.0,20.2,26.67,West,270,2.4,8.9,59,0.00,,,0.00,VWS V14.01,2013-03-04 09:27:00,
2013-03-04 02:32:00,32.9,20.2,26.67,NW,315,8.0,8.0,59,0.00,,,0.00,VWS V14.01,2013-03-04 09:32:00,
2013-03-04 02:37:00,32.7,20.0,26.67,NW,315,2.6,8.0,59,0.00,,,0.00,VWS V14.01,2013-03-04 09:37:00,
2013-03-04 02:42:00,32.7,19.6,26.67,NNW,338,6.0,8.0,58,0.00,,,0.00,VWS V14.01,2013-03-04 09:42:00,
2013-03-04 02:47:00,32.7,19.6,26.67,NNW,338,6.4,6.4,58,0.00,,,0.00,VWS V14.01,2013-03-04 09:47:00,
2013-03-04 02:52:00,32.7,19.6,26.67,North,0,5.8,6.4,58,0.00,,,0.00,VWS V14.01,2013-03-04 09:52:00,
2013-03-04 02:57:00,32.7,19.6,26.67,NW,315,6.4,7.8,58,0.00,,,0.00,VWS V14.01,2013-03-04 09:57:00,
2013-03-04 03:02:00,32.7,19.6,26.67,NW,315,8.9,8.9,58,0.00,,,0.00,VWS V14.01,2013-03-04 10:02:00,
2013-03-04 03:07:00,32.5,19.4,26.67,NNW,338,3.3,8.9,58,0.00,,,0.00,VWS V14.01,2013-03-04 10:07:00,
2013-03-04 03:12:00,32.3,19.2,26.66,NNW,338,8.0,10.9,58,0.00,,,0.00,VWS V14.01,2013-03-04 10:12:00,
2013-03-04 03:17:00,32.1,19.0,26.67,NNW,338,5.3,7.8,58,0.00,,,0.00,VWS V14.01,2013-03-04 10:17:00,
2013-03-04 03:22:00,31.8,19.1,26.67,North,0,9.3,9.3,59,0.00,,,0.00,VWS V14.01,2013-03-04 10:22:00,
2013-03-04 03:27:00,31.6,18.9,26.67,NW,315,3.1,9.3,59,0.00,,,0.00,VWS V14.01,2013-03-04 10:27:00,
2013-03-04 03:32:00,31.6,18.9,26.67,NNW,338,3.5,3.5,59,0.00,,,0.00,VWS V14.01,2013-03-04 10:32:00,
2013-03-04 03:37:00,31.2,18.5,26.67,NW,315,3.3,3.8,59,0.00,,,0.00,VWS V14.01,2013-03-04 10:37:00,
2013-03-04 03:42:00,31.1,18.5,26.67,NNW,338,2.4,4.0,59,0.00,,,0.00,VWS V14.01,2013-03-04 10:42:00,
2013-03-04 03:47:00,30.7,18.1,26.66,NNW,338,3.8,3.8,59,0.00,,,0.00,VWS V14.01,2013-03-04 10:47:00,
2013-03-04 03:52:00,30.3,18.1,26.67,NW,315,2.2,3.8,60,0.00,,,0.00,VWS V14.01,2013-03-04 10:52:00,
2013-03-04 03:57:00,30.2,18.0,26.67,NNW,338,2.4,3.8,60,0.00,,,0.00,VWS V14.01,2013-03-04 10:57:00,
2013-03-04 04:03:00,30.0,17.8,26.67,NNW,338,1.5,2.4,60,0.00,,,0.00,VWS V14.01,2013-03-04 11:03:00,
2013-03-04 04:08:00,29.8,17.6,26.67,NNW,338,2.4,2.4,60,0.00,,,0.00,VWS V14.01,2013-03-04 11:08:00,
2013-03-04 04:13:00,29.4,17.2,26.66,NNW,338,0.0,2.4,60,0.00,,,0.00,VWS V14.01,2013-03-04 11:13:00,
2013-03-04 04:18:00,29.3,17.1,26.67,NNW,338,1.7,1.7,60,0.00,,,0.00,VWS V14.01,2013-03-04 11:18:00,
2013-03-04 04:23:00,28.7,16.6,26.67,WNW,292,0.0,1.7,60,0.00,,,0.00,VWS V14.01,2013-03-04 11:23:00,
2013-03-04 04:28:00,28.5,16.4,26.67,NW,315,0.0,1.7,60,0.00,,,0.00,VWS V14.01,2013-03-04 11:28:00,
2013-03-04 04:33:00,28.2,16.1,26.67,NW,315,0.0,0.0,60,0.00,,,0.00,VWS V14.01,2013-03-04 11:33:00,
2013-03-04 04:38:00,27.6,15.6,26.68,WNW,292,0.0,0.0,60,0.00,,,0.00,VWS V14.01,2013-03-04 11:38:00,
2013-03-04 04:43:00,27.1,15.1,26.68,WNW,292,0.0,0.0,60,0.00,,,0.00,VWS V14.01,2013-03-04 11:43:00,
2013-03-04 04:48:00,26.6,14.6,26.68,SSE,158,0.0,2.2,60,0.00,,,0.00,VWS V14.01,2013-03-04 11:48:00,
2013-03-04 04:53:00,25.5,13.6,26.68,SE,135,0.0,2.2,60,0.00,,,0.00,VWS V14.01,2013-03-04 11:53:00,
2013-03-04 04:58:00,24.8,12.9,26.68,SE,135,0.0,2.2,60,0.00,,,0.00,VWS V14.01,2013-03-04 11:58:00,
2013-03-04 05:03:00,24.4,12.5,26.68,SE,135,0.0,4.0,60,0.00,,,0.00,VWS V14.01,2013-03-04 12:03:00,
2013-03-04 05:08:00,23.7,12.6,26.68,NW,315,0.0,4.0,62,0.00,,,0.00,VWS V14.01,2013-03-04 12:08:00,
2013-03-04 05:13:00,23.5,12.8,26.68,NNW,338,0.0,4.0,63,0.00,,,0.00,VWS V14.01,2013-03-04 12:13:00,
2013-03-04 05:18:00,23.3,12.6,26.68,NNW,338,1.7,1.7,63,0.00,,,0.00,VWS V14.01,2013-03-04 12:18:00,
2013-03-04 05:23:00,23.1,12.8,26.68,WNW,292,0.0,1.7,64,0.00,,,0.00,VWS V14.01,2013-03-04 12:23:00,
2013-03-04 05:28:00,23.1,12.8,26.69,North,0,2.4,2.4,64,0.00,,,0.00,VWS V14.01,2013-03-04 12:28:00,
2013-03-04 05:33:00,23.1,12.8,26.69,North,0,1.5,3.8,64,0.00,,,0.00,VWS V14.01,2013-03-04 12:33:00,
2013-03-04 05:38:00,23.1,12.8,26.69,NNW,338,0.0,3.8,64,0.00,,,0.00,VWS V14.01,2013-03-04 12:38:00,
2013-03-04 05:43:00,23.3,12.6,26.69,NNW,338,1.1,3.8,63,0.00,,,0.00,VWS V14.01,2013-03-04 12:43:00,
2013-03-04 05:48:00,23.5,13.1,26.69,NW,315,5.5,6.2,64,0.00,,,0.00,VWS V14.01,2013-03-04 12:48:00,
2013-03-04 05:53:00,24.6,14.5,26.70,North,0,5.1,7.3,65,0.00,,,0.00,VWS V14.01,2013-03-04 12:53:00,
2013-03-04 05:58:00,25.5,15.4,26.70,North,0,9.6,9.6,65,0.00,,,0.00,VWS V14.01,2013-03-04 12:58:00,
2013-03-04 06:03:00,26.4,15.9,26.70,North,0,12.9,12.9,64,0.00,,,0.00,VWS V14.01,2013-03-04 13:03:00,
2013-03-04 06:08:00,27.1,16.2,26.70,North,0,11.8,12.9,63,0.00,,,0.00,VWS V14.01,2013-03-04 13:08:00,
2013-03-04 06:14:00,27.3,16.0,26.70,North,0,9.3,12.9,62,0.00,,,0.00,VWS V14.01,2013-03-04 13:14:00,
2013-03-04 06:19:00,27.3,15.6,26.70,North,0,9.6,9.6,61,0.00,,,0.00,VWS V14.01,2013-03-04 13:19:00,
2013-03-04 06:24:00,27.3,15.6,26.70,NNW,338,8.0,10.9,61,0.00,,,0.00,VWS V14.01,2013-03-04 13:24:00,
2013-03-04 06:29:00,27.1,15.1,26.70,North,0,11.4,11.4,60,0.00,,,0.00,VWS V14.01,2013-03-04 13:29:00,
2013-03-04 06:34:00,27.3,15.3,26.70,North,0,8.0,13.6,60,0.00,,,0.00,VWS V14.01,2013-03-04 13:34:00,
2013-03-04 06:39:00,27.6,15.2,26.71,NNW,338,9.8,13.6,59,0.00,,,0.00,VWS V14.01,2013-03-04 13:39:00,
2013-03-04 06:44:00,28.2,15.3,26.71,North,0,9.3,13.6,58,0.00,,,0.00,VWS V14.01,2013-03-04 13:44:00,
2013-03-04 06:49:00,28.4,15.1,26.72,NNW,338,11.1,11.1,57,0.00,,,0.00,VWS V14.01,2013-03-04 13:49:00,
2013-03-04 06:54:00,28.5,14.8,26.71,NW,315,8.0,11.1,56,0.00,,,0.00,VWS V14.01,2013-03-04 13:54:00,
2013-03-04 06:59:00,29.3,15.1,26.71,NNE,22,6.7,11.1,55,0.00,,,0.00,VWS V14.01,2013-03-04 13:59:00,
2013-03-04 07:04:00,30.9,16.2,26.72,North,0,9.6,9.6,54,0.00,,,0.00,VWS V14.01,2013-03-04 14:04:00,
2013-03-04 07:09:00,31.2,16.1,26.72,NNW,338,9.1,9.6,53,0.00,,,0.00,VWS V14.01,2013-03-04 14:09:00,
2013-03-04 07:14:00,31.2,15.6,26.72,NE,45,3.5,12.3,52,0.00,,,0.00,VWS V14.01,2013-03-04 14:14:00,
2013-03-04 07:19:00,31.2,15.2,26.72,WNW,292,4.4,8.7,51,0.00,,,0.00,VWS V14.01,2013-03-04 14:19:00,
2013-03-04 07:24:00,31.4,15.4,26.73,NW,315,5.8,8.7,51,0.00,,,0.00,VWS V14.01,2013-03-04 14:24:00,
2013-03-04 07:29:00,32.1,15.6,26.73,North,0,3.8,8.7,50,0.00,,,0.00,VWS V14.01,2013-03-04 14:29:00,
2013-03-04 07:34:00,34.1,17.0,26.73,North,0,5.3,6.0,49,0.00,,,0.00,VWS V14.01,2013-03-04 14:34:00,
2013-03-04 07:39:00,35.7,18.0,26.73,NNW,338,3.1,6.0,48,0.00,,,0.00,VWS V14.01,2013-03-04 14:39:00,
2013-03-04 07:44:00,36.6,18.3,26.73,NNW,338,10.0,10.0,47,0.00,,,0.00,VWS V14.01,2013-03-04 14:44:00,
2013-03-04 07:49:00,36.3,16.0,26.73,North,0,7.8,11.1,43,0.00,,,0.00,VWS V14.01,2013-03-04 14:49:00,
2013-03-04 07:54:00,37.0,16.6,26.73,North,0,13.4,13.4,43,0.00,,,0.00,VWS V14.01,2013-03-04 14:54:00,
2013-03-04 07:59:00,37.9,16.9,26.73,North,0,6.0,13.4,42,0.00,,,0.00,VWS V14.01,2013-03-04 14:59:00,
2013-03-04 08:04:00,39.3,17.6,26.73,NNW,338,7.3,8.0,41,0.00,,,0.00,VWS V14.01,2013-03-04 15:04:00,
2013-03-04 08:09:00,40.4,17.4,26.73,NNW,338,5.8,12.3,39,0.00,,,0.00,VWS V14.01,2013-03-04 15:09:00,
2013-03-04 08:14:00,42.4,18.6,26.73,NNW,338,6.2,12.3,38,0.00,,,0.00,VWS V14.01,2013-03-04 15:14:00,
2013-03-04 08:19:00,43.7,19.1,26.73,North,0,4.2,4.6,37,0.00,,,0.00,VWS V14.01,2013-03-04 15:19:00,
2013-03-04 08:24:00,45.1,18.4,26.73,WNW,292,7.1,7.1,34,0.00,,,0.00,VWS V14.01,2013-03-04 15:24:00,
2013-03-04 08:29:00,46.2,18.0,26.73,NNW,338,6.4,7.1,32,0.00,,,0.00,VWS V14.01,2013-03-04 15:29:00,
2013-03-04 08:34:00,46.4,18.2,26.73,WNW,292,9.1,9.1,32,0.00,,,0.00,VWS V14.01,2013-03-04 15:34:00,
2013-03-04 08:40:00,46.9,17.9,26.73,WNW,292,6.2,9.1,31,0.00,,,0.00,VWS V14.01,2013-03-04 15:40:00,
2013-03-04 08:45:00,46.7,16.1,26.73,North,0,6.9,9.6,29,0.00,,,0.00,VWS V14.01,2013-03-04 15:45:00,
2013-03-04 08:50:00,46.0,15.5,26.73,NNW,338,5.1,8.0,29,0.00,,,0.00,VWS V14.01,2013-03-04 15:50:00,
2013-03-04 08:55:00,45.8,15.4,26.73,North,0,7.3,8.0,29,0.00,,,0.00,VWS V14.01,2013-03-04 15:55:00,
2013-03-04 09:00:00,45.6,16.0,26.73,NNE,22,5.3,8.0,30,0.00,,,0.00,VWS V14.01,2013-03-04 16:00:00,
2013-03-04 09:05:00,46.0,15.5,26.73,WNW,292,1.7,10.0,29,0.00,,,0.00,VWS V14.01,2013-03-04 16:05:00,
2013-03-04 09:10:00,45.1,14.0,26.73,North,0,15.2,15.2,28,0.00,,,0.00,VWS V14.01,2013-03-04 16:10:00,
2013-03-04 09:15:00,44.9,14.6,26.73,North,0,5.1,15.2,29,0.00,,,0.00,VWS V14.01,2013-03-04 16:15:00,
2013-03-04 09:20:00,45.1,14.8,26.73,NNW,338,3.8,3.8,29,0.00,,,0.00,VWS V14.01,2013-03-04 16:20:00,
2013-03-04 09:25:00,45.1,13.1,26.73,NW,315,5.5,12.7,27,0.00,,,0.00,VWS V14.01,2013-03-04 16:25:00,
2013-03-04 09:30:00,45.1,13.1,26.73,NNE,22,17.4,17.4,27,0.00,,,0.00,VWS V14.01,2013-03-04 16:30:00,
2013-03-04 09:35:00,44.9,13.0,26.73,North,0,10.2,10.2,27,0.00,,,0.00,VWS V14.01,2013-03-04 16:35:00,
2013-03-04 09:40:00,44.2,12.4,26.73,North,0,9.8,18.3,27,0.00,,,0.00,VWS V14.01,2013-03-04 16:40:00,
2013-03-04 09:45:00,43.8,12.0,26.73,North,0,8.2,18.3,27,0.00,,,0.00,VWS V14.01,2013-03-04 16:45:00,
2013-03-04 09:50:00,43.5,11.8,26.74,NNE,22,14.0,14.0,27,0.00,,,0.00,VWS V14.01,2013-03-04 16:50:00,
2013-03-04 09:55:00,42.4,10.8,26.74,NW,315,7.8,14.0,27,0.00,,,0.00,VWS V14.01,2013-03-04 16:55:00,
2013-03-04 10:00:00,42.0,10.5,26.74,NNW,338,10.2,15.6,27,0.00,,,0.00,VWS V14.01,2013-03-04 17:00:00,
2013-03-04 10:05:00,42.0,10.5,26.75,NNW,338,10.5,11.1,27,0.00,,,0.00,VWS V14.01,2013-03-04 17:05:00,
2013-03-04 10:10:00,41.9,10.4,26.74,WNW,292,10.2,17.4,27,0.00,,,0.00,VWS V14.01,2013-03-04 17:10:00,
2013-03-04 10:16:00,41.7,11.0,26.75,WNW,292,7.8,7.8,28,0.00,,,0.00,VWS V14.01,2013-03-04 17:16:00,
2013-03-04 10:21:00,41.0,9.6,26.75,WNW,292,10.7,10.7,27,0.00,,,0.00,VWS V14.01,2013-03-04 17:21:00,
2013-03-04 10:26:00,41.0,10.4,26.76,WNW,292,10.2,15.2,28,0.00,,,0.00,VWS V14.01,2013-03-04 17:26:00,
2013-03-04 10:31:00,41.0,9.6,26.75,WNW,292,15.4,15.4,27,0.00,,,0.00,VWS V14.01,2013-03-04 17:31:00,
2013-03-04 10:36:00,40.1,8.8,26.75,NNE,22,11.4,16.5,27,0.00,,,0.00,VWS V14.01,2013-03-04 17:36:00,
2013-03-04 10:41:00,39.0,7.9,26.75,WNW,292,16.3,16.5,27,0.00,,,0.00,VWS V14.01,2013-03-04 17:41:00,
2013-03-04 10:46:00,38.8,9.3,26.75,NNW,338,14.0,14.0,29,0.00,,,0.00,VWS V14.01,2013-03-04 17:46:00,
2013-03-04 10:51:00,39.7,12.3,26.76,North,0,8.0,19.0,32,0.00,,,0.00,VWS V14.01,2013-03-04 17:51:00,
2013-03-04 10:56:00,38.8,12.9,26.76,North,0,12.0,19.0,34,0.00,,,0.00,VWS V14.01,2013-03-04 17:56:00,
2013-03-04 11:01:00,37.5,12.4,26.76,WNW,292,15.6,15.6,35,0.00,,,0.00,VWS V14.01,2013-03-04 18:01:00,
2013-03-04 11:06:00,35.7,11.4,26.76,NW,315,17.2,21.0,36,0.00,,,0.00,VWS V14.01,2013-03-04 18:06:00,
2013-03-04 11:11:00,34.8,11.2,26.76,NNW,338,11.6,21.0,37,0.00,,,0.00,VWS V14.01,2013-03-04 18:11:00,
2013-03-04 11:16:00,34.8,11.8,26.77,NW,315,20.8,20.8,38,0.00,,,0.00,VWS V14.01,2013-03-04 18:16:00,
2013-03-04 11:21:00,35.7,12.6,26.76,NNE,22,17.4,20.8,38,0.00,,,0.00,VWS V14.01,2013-03-04 18:21:00,
2013-03-04 11:26:00,36.1,13.0,26.77,NW,315,11.4,20.8,38,0.00,,,0.00,VWS V14.01,2013-03-04 18:26:00,
2013-03-04 11:29:00,36.1,13.0,26.78,NNW,338,16.1,20.8,38,0.00,,,0.00,VWS V14.01,2013-03-04 18:29:00,
2013-03-04 11:30:00,36.1,13.0,26.77,NNW,338,17.6,20.8,38,0.00,,,0.00,VWS V14.01,2013-03-04 18:30:00,
2013-03-04 11:34:00,36.3,13.1,26.78,WNW,292,12.7,12.7,38,0.00,,,0.00,VWS V14.01,2013-03-04 18:34:00,
2013-03-04 11:39:00,35.9,8.9,26.78,North,0,16.3,16.7,32,0.00,,,0.00,VWS V14.01,2013-03-04 18:39:00,
2013-03-04 11:44:00,36.6,8.1,26.78,NW,315,16.3,19.2,30,0.00,,,0.00,VWS V14.01,2013-03-04 18:44:00,
2013-03-04 11:50:00,37.5,7.4,26.78,NW,315,11.1,16.3,28,0.00,,,0.00,VWS V14.01,2013-03-04 18:50:00,
2013-03-04 11:55:00,38.1,7.1,26.79,WNW,292,6.9,20.8,27,0.00,,,0.00,VWS V14.01,2013-03-04 18:55:00,
2013-03-04 12:00:00,38.8,6.9,26.79,NW,315,11.8,20.8,26,0.00,,,0.00,VWS V14.01,2013-03-04 19:00:00,
2013-03-04 12:05:00,39.0,7.0,26.78,West,270,13.6,13.6,26,0.00,,,0.00,VWS V14.01,2013-03-04 19:05:00,
2013-03-04 12:10:00,39.3,7.3,26.78,West,270,8.9,13.6,26,0.00,,,0.00,VWS V14.01,2013-03-04 19:10:00,
2013-03-04 12:15:00,39.5,7.5,26.78,NNE,22,19.4,25.0,26,0.00,,,0.00,VWS V14.01,2013-03-04 19:15:00,
2013-03-04 12:20:00,39.7,6.8,26.78,NNW,338,13.1,22.3,25,0.00,,,0.00,VWS V14.01,2013-03-04 19:20:00,
2013-03-04 12:25:00,39.3,6.4,26.78,NW,315,10.5,22.3,25,0.00,,,0.00,VWS V14.01,2013-03-04 19:25:00,
2013-03-04 12:30:00,38.8,6.0,26.78,West,270,15.4,22.3,25,0.00,,,0.00,VWS V14.01,2013-03-04 19:30:00,
2013-03-04 12:35:00,37.9,6.1,26.78,WNW,292,11.8,15.4,26,0.00,,,0.00,VWS V14.01,2013-03-04 19:35:00,
2013-03-04 12:40:00,36.3,4.7,26.79,NE,45,20.8,20.8,26,0.00,,,0.00,VWS V14.01,2013-03-04 19:40:00,
2013-03-04 12:45:00,35.4,4.8,26.79,WNW,292,17.4,20.8,27,0.00,,,0.00,VWS V14.01,2013-03-04 19:45:00,
2013-03-04 12:50:00,35.7,5.8,26.79,NE,45,12.3,17.4,28,0.00,,,0.00,VWS V14.01,2013-03-04 19:50:00,
2013-03-04 12:55:00,34.3,6.1,26.80,West,270,14.5,17.4,30,0.00,,,0.00,VWS V14.01,2013-03-04 19:55:00,
2013-03-04 13:00:00,32.7,5.4,26.80,NW,315,18.1,18.1,31,0.00,,,0.00,VWS V14.01,2013-03-04 20:00:00,
2013-03-04 13:05:00,32.1,4.9,26.80,NNW,338,21.9,21.9,31,0.00,,,0.00,VWS V14.01,2013-03-04 20:05:00,
2013-03-04 13:11:00,32.3,6.4,26.80,NNW,338,8.5,28.8,33,0.00,,,0.00,VWS V14.01,2013-03-04 20:11:00,
2013-03-04 13:16:00,31.6,8.3,26.81,NW,315,11.4,11.4,37,0.00,,,0.00,VWS V14.01,2013-03-04 20:16:00,
2013-03-04 13:21:00,31.1,9.1,26.80,WNW,292,15.2,15.2,39,0.00,,,0.00,VWS V14.01,2013-03-04 20:21:00,
2013-03-04 13:26:00,30.7,9.2,26.81,NNW,338,19.2,19.2,40,0.00,,,0.00,VWS V14.01,2013-03-04 20:26:00,
2013-03-04 13:31:00,30.9,8.3,26.81,NE,45,10.2,10.2,38,0.00,,,0.00,VWS V14.01,2013-03-04 20:31:00,
2013-03-04 13:36:00,30.9,8.3,26.81,WNW,292,14.9,17.4,38,0.00,,,0.00,VWS V14.01,2013-03-04 20:36:00,
2013-03-04 13:41:00,30.7,8.7,26.81,West,270,10.5,18.3,39,0.00,,,0.00,VWS V14.01,2013-03-04 20:41:00,
2013-03-04 13:46:00,30.5,9.1,26.82,NW,315,17.8,17.8,40,0.00,,,0.00,VWS V14.01,2013-03-04 20:46:00,
2013-03-04 13:51:00,31.1,7.9,26.81,NW,315,12.5,28.4,37,0.00,,,0.00,VWS V14.01,2013-03-04 20:51:00,
2013-03-04 13:56:00,31.1,11.8,26.82,NW,315,21.0,28.4,44,0.00,,,0.00,VWS V14.01,2013-03-04 20:56:00,
2013-03-04 14:01:00,30.9,12.1,26.82,NNW,338,17.0,17.0,45,0.00,,,0.00,VWS V14.01,2013-03-04 21:01:00,
2013-03-04 14:06:00,31.1,11.8,26.82,West,270,16.7,21.6,44,0.00,,,0.00,VWS V14.01,2013-03-04 21:06:00,
2013-03-04 14:11:00,31.2,13.3,26.83,NNW,338,16.1,21.6,47,0.00,,,0.00,VWS V14.01,2013-03-04 21:11:00,
2013-03-04 14:16:00,30.0,12.2,26.83,North,0,16.3,16.3,47,0.00,,,0.00,VWS V14.01,2013-03-04 21:16:00,
2013-03-04 14:21:00,29.3,11.6,26.83,West,270,8.7,16.3,47,0.00,,,0.00,VWS V14.01,2013-03-04 21:21:00,
2013-03-04 14:26:00,28.7,11.5,26.83,NE,45,13.6,20.8,48,0.00,,,0.00,VWS V14.01,2013-03-04 21:26:00,
2013-03-04 14:32:00,28.4,11.7,26.84,WNW,292,19.6,19.6,49,0.00,,,0.00,VWS V14.01,2013-03-04 21:32:00,
2013-03-04 14:37:00,28.2,11.0,26.84,NNW,338,13.6,19.6,48,0.00,,,0.00,VWS V14.01,2013-03-04 21:37:00,
2013-03-04 14:42:00,28.2,10.1,26.84,East,90,15.6,20.1,46,0.00,,,0.00,VWS V14.01,2013-03-04 21:42:00,
2013-03-04 14:47:00,28.0,10.9,26.84,NW,315,14.9,15.8,48,0.00,,,0.00,VWS V14.01,2013-03-04 21:47:00,
2013-03-04 14:52:00,27.6,11.4,26.85,NW,315,15.2,15.8,50,0.00,,,0.00,VWS V14.01,2013-03-04 21:52:00,
2013-03-04 14:57:00,27.5,12.6,26.86,WNW,292,16.5,16.5,53,0.00,,,0.00,VWS V14.01,2013-03-04 21:57:00,
2013-03-04 15:02:00,27.1,12.7,26.86,WNW,292,8.0,14.5,54,0.00,,,0.00,VWS V14.01,2013-03-04 22:02:00,
2013-03-04 15:07:00,26.9,12.5,26.86,NW,315,21.6,21.6,54,0.00,,,0.00,VWS V14.01,2013-03-04 22:07:00,
2013-03-04 15:12:00,26.9,11.2,26.86,East,90,9.8,24.8,51,0.00,,,0.00,VWS V14.01,2013-03-04 22:12:00,
2013-03-04 15:17:00,27.3,11.1,26.87,West,270,15.4,17.2,50,0.00,,,0.00,VWS V14.01,2013-03-04 22:17:00,
2013-03-04 15:22:00,27.3,10.7,26.87,North,0,18.7,25.5,49,0.00,,,0.00,VWS V14.01,2013-03-04 22:22:00,
2013-03-04 15:27:00,27.3,11.1,26.87,North,0,7.6,25.5,50,0.00,,,0.00,VWS V14.01,2013-03-04 22:27:00,
2013-03-04 15:32:00,27.1,11.4,26.88,NNW,338,11.8,11.8,51,0.00,,,0.00,VWS V14.01,2013-03-04 22:32:00,
2013-03-04 15:37:00,26.6,12.2,26.88,NW,315,8.9,15.6,54,0.00,,,0.00,VWS V14.01,2013-03-04 22:37:00,
2013-03-04 15:42:00,25.8,12.3,26.88,NW,315,21.6,21.6,56,0.00,,,0.00,VWS V14.01,2013-03-04 22:42:00,
2013-03-04 15:47:00,25.8,11.0,26.88,NNW,338,12.5,12.5,53,0.00,,,0.00,VWS V14.01,2013-03-04 22:47:00,
2013-03-04 15:52:00,25.5,10.3,26.89,North,0,20.1,20.1,52,0.00,,,0.00,VWS V14.01,2013-03-04 22:52:00,
2013-03-04 15:57:00,25.5,10.3,26.89,NNE,22,20.5,20.5,52,0.00,,,0.00,VWS V14.01,2013-03-04 22:57:00,
2013-03-04 16:03:00,25.5,10.3,26.89,NW,315,12.9,21.2,52,0.00,,,0.00,VWS V14.01,2013-03-04 23:03:00,
2013-03-04 16:08:00,25.7,10.5,26.89,WNW,292,11.1,21.2,52,0.00,,,0.00,VWS V14.01,2013-03-04 23:08:00,
2013-03-04 16:13:00,25.7,11.4,26.90,NNW,338,18.3,21.2,54,0.00,,,0.00,VWS V14.01,2013-03-04 23:13:00,
2013-03-04 16:18:00,25.5,12.4,26.91,NNW,338,24.6,24.6,57,0.00,,,0.00,VWS V14.01,2013-03-04 23:18:00,
2013-03-04 16:23:00,25.5,12.4,26.91,ENE,68,14.7,24.6,57,0.00,,,0.00,VWS V14.01,2013-03-04 23:23:00,
2013-03-04 16:28:00,25.1,10.4,26.92,NNE,22,12.3,24.6,53,0.00,,,0.00,VWS V14.01,2013-03-04 23:28:00,
2013-03-04 16:33:00,24.6,9.9,26.92,NNW,338,14.5,15.6,53,0.00,,,0.00,VWS V14.01,2013-03-04 23:33:00,
2013-03-04 16:38:00,24.4,10.1,26.92,SSW,202,16.3,22.5,54,0.00,,,0.00,VWS V14.01,2013-03-04 23:38:00,
2013-03-04 16:43:00,24.0,10.2,26.92,NNW,338,14.7,22.5,55,0.00,,,0.00,VWS V14.01,2013-03-04 23:43:00,
2013-03-04 16:48:00,23.7,11.5,26.92,North,0,17.4,18.5,59,0.00,,,0.00,VWS V14.01,2013-03-04 23:48:00,
2013-03-04 16:53:00,23.5,11.7,26.93,NNW,338,14.3,18.5,60,0.00,,,0.00,VWS V14.01,2013-03-04 23:53:00,
2013-03-04 16:58:00,23.1,12.0,26.93,North,0,10.9,19.0,62,0.00,,,0.00,VWS V14.01,2013-03-04 23:58:00,
2013-03-04 17:03:00,22.8,12.1,26.94,North,0,14.0,22.5,63,0.00,,,0.00,VWS V14.01,2013-03-05 00:03:00,
2013-03-04 17:08:00,22.8,12.1,26.94,NNW,338,20.5,28.8,63,0.00,,,0.00,VWS V14.01,2013-03-05 00:08:00,
2013-03-04 17:13:00,22.6,11.9,26.94,NE,45,20.5,28.8,63,0.00,,,0.00,VWS V14.01,2013-03-05 00:13:00,
2013-03-04 17:18:00,22.4,11.4,26.94,North,0,14.0,16.3,62,0.00,,,0.00,VWS V14.01,2013-03-05 00:18:00,
2013-03-04 17:23:00,22.2,11.5,26.94,NNW,338,12.3,16.7,63,0.00,,,0.00,VWS V14.01,2013-03-05 00:23:00,
2013-03-04 17:28:00,22.1,11.4,26.94,NNE,22,21.0,21.0,63,0.00,,,0.00,VWS V14.01,2013-03-05 00:28:00,
2013-03-04 17:34:00,21.9,11.6,26.94,NW,315,14.3,14.7,64,0.00,,,0.00,VWS V14.01,2013-03-05 00:34:00,
2013-03-04 17:39:00,21.9,12.0,26.94,WNW,292,15.8,25.7,65,0.00,,,0.00,VWS V14.01,2013-03-05 00:39:00,
2013-03-04 17:44:00,21.9,12.0,26.94,North,0,0.0,25.7,65,0.00,,,0.00,VWS V14.01,2013-03-05 00:44:00,
2013-03-04 17:49:00,21.9,12.3,26.95,WNW,292,20.1,20.1,66,0.00,,,0.00,VWS V14.01,2013-03-05 00:49:00,
2013-03-04 17:54:00,21.9,13.0,26.95,North,0,19.0,20.1,68,0.00,,,0.00,VWS V14.01,2013-03-05 00:54:00,
2013-03-04 17:59:00,21.7,13.1,26.95,North,0,10.9,22.3,69,0.00,,,0.00,VWS V14.01,2013-03-05 00:59:00,
2013-03-04 18:04:00,21.5,13.2,26.95,NNE,22,18.5,18.5,70,0.00,,,0.00,VWS V14.01,2013-03-05 01:04:00,
2013-03-04 18:09:00,21.3,13.1,26.95,NNE,22,20.5,20.5,70,0.00,,,0.00,VWS V14.01,2013-03-05 01:09:00,
2013-03-04 18:14:00,21.2,13.6,26.95,West,270,8.9,20.5,72,0.00,,,0.00,VWS V14.01,2013-03-05 01:14:00,
2013-03-04 18:19:00,21.0,13.4,26.96,WNW,292,16.5,16.5,72,0.00,,,0.00,VWS V14.01,2013-03-05 01:19:00,
2013-03-04 18:24:00,21.0,13.7,26.96,North,0,18.1,21.6,73,0.00,,,0.00,VWS V14.01,2013-03-05 01:24:00,
2013-03-04 18:29:00,21.0,14.0,26.96,NNW,338,8.9,21.6,74,0.00,,,0.00,VWS V14.01,2013-03-05 01:29:00,
2013-03-04 18:34:00,21.0,13.7,26.96,WSW,248,9.3,9.3,73,0.00,,,0.00,VWS V14.01,2013-03-05 01:34:00,
2013-03-04 18:39:00,21.3,13.4,26.96,NNW,338,14.0,14.0,71,0.00,,,0.00,VWS V14.01,2013-03-05 01:39:00,
2013-03-04 18:44:00,21.3,12.7,26.96,NNW,338,20.8,20.8,69,0.00,,,0.00,VWS V14.01,2013-03-05 01:44:00,
2013-03-04 18:49:00,21.5,12.3,26.96,North,0,12.5,17.6,67,0.00,,,0.00,VWS V14.01,2013-03-05 01:49:00,
2013-03-04 18:54:00,21.7,12.1,26.96,NE,45,16.3,18.5,66,0.00,,,0.00,VWS V14.01,2013-03-05 01:54:00,
2013-03-04 18:59:00,21.7,12.1,26.96,WNW,292,13.6,19.6,66,0.00,,,0.00,VWS V14.01,2013-03-05 01:59:00,
2013-03-04 19:04:00,21.9,12.3,26.97,NE,45,10.7,19.0,66,0.00,,,0.00,VWS V14.01,2013-03-05 02:04:00,
2013-03-04 19:10:00,21.9,12.3,26.96,NNW,338,17.8,19.0,66,0.00,,,0.00,VWS V14.01,2013-03-05 02:10:00,
2013-03-04 19:15:00,21.9,12.3,26.96,NE,45,11.4,19.6,66,0.00,,,0.00,VWS V14.01,2013-03-05 02:15:00,
2013-03-04 19:20:00,21.9,12.3,26.96,ESE,112,8.0,12.9,66,0.00,,,0.00,VWS V14.01,2013-03-05 02:20:00,
2013-03-04 19:25:00,21.9,12.3,26.96,WNW,292,19.0,25.5,66,0.00,,,0.00,VWS V14.01,2013-03-05 02:25:00,
2013-03-04 19:30:00,21.9,12.3,26.96,North,0,21.6,25.5,66,0.00,,,0.00,VWS V14.01,2013-03-05 02:30:00,
2013-03-04 19:35:00,21.9,12.3,26.96,NNE,22,18.7,31.7,66,0.00,,,0.00,VWS V14.01,2013-03-05 02:35:00,
2013-03-04 19:40:00,21.9,12.3,26.96,NW,315,20.3,31.7,66,0.00,,,0.00,VWS V14.01,2013-03-05 02:40:00,
2013-03-04 19:45:00,21.9,12.0,26.96,NNE,22,16.3,31.7,65,0.00,,,0.00,VWS V14.01,2013-03-05 02:45:00,
2013-03-04 19:50:00,21.7,11.8,26.96,North,0,16.3,20.3,65,0.00,,,0.00,VWS V14.01,2013-03-05 02:50:00,
2013-03-04 19:55:00,21.7,11.8,26.97,North,0,18.7,20.3,65,0.00,,,0.00,VWS V14.01,2013-03-05 02:55:00,
2013-03-04 20:00:00,21.7,11.8,26.97,ENE,68,17.6,20.3,65,0.00,,,0.00,VWS V14.01,2013-03-05 03:00:00,
2013-03-04 20:05:00,21.5,11.9,26.97,NNW,338,18.3,18.3,66,0.00,,,0.00,VWS V14.01,2013-03-05 03:05:00,
2013-03-04 20:10:00,21.3,12.4,26.98,West,270,10.9,18.3,68,0.00,,,0.00,VWS V14.01,2013-03-05 03:10:00,
2013-03-04 20:15:00,21.3,12.7,26.98,North,0,10.2,23.4,69,0.00,,,0.00,VWS V14.01,2013-03-05 03:15:00,
2013-03-04 20:20:00,21.0,12.8,26.98,ENE,68,30.4,30.4,70,0.00,,,0.00,VWS V14.01,2013-03-05 03:20:00,
2013-03-04 20:25:00,21.0,12.8,26.98,WSW,248,19.4,38.0,70,0.00,,,0.00,VWS V14.01,2013-03-05 03:25:00,
2013-03-04 20:30:00,21.0,12.8,26.99,North,0,19.0,38.0,70,0.00,,,0.00,VWS V14.01,2013-03-05 03:30:00,
2013-03-04 20:35:00,20.8,12.2,26.99,NNW,338,16.3,19.0,69,0.00,,,0.00,VWS V14.01,2013-03-05 03:35:00,
2013-03-04 20:40:00,20.8,11.9,26.99,NNW,338,20.8,20.8,68,0.00,,,0.00,VWS V14.01,2013-03-05 03:40:00,
2013-03-04 20:45:00,20.8,11.9,27.00,ENE,68,16.7,16.7,68,0.00,,,0.00,VWS V14.01,2013-03-05 03:45:00,
2013-03-04 20:50:00,21.0,12.1,27.01,NW,315,14.9,20.5,68,0.00,,,0.00,VWS V14.01,2013-03-05 03:50:00,
2013-03-04 20:55:00,21.0,11.8,27.01,NW,315,12.5,31.7,67,0.00,,,0.00,VWS V14.01,2013-03-05 03:55:00,
2013-03-04 21:01:00,21.0,11.4,27.01,NNW,338,16.1,16.1,66,0.00,,,0.00,VWS V14.01,2013-03-05 04:01:00,
2013-03-04 21:06:00,21.0,11.4,27.01,NW,315,13.6,16.1,66,0.00,,,0.00,VWS V14.01,2013-03-05 04:06:00,
2013-03-04 21:11:00,21.0,11.1,27.01,North,0,14.7,16.1,65,0.00,,,0.00,VWS V14.01,2013-03-05 04:11:00,
2013-03-04 21:16:00,21.0,11.1,27.01,NNW,338,28.8,28.8,65,0.00,,,0.00,VWS V14.01,2013-03-05 04:16:00,
2013-03-04 21:21:00,21.2,11.3,27.01,East,90,15.6,30.8,65,0.00,,,0.00,VWS V14.01,2013-03-05 04:21:00,
2013-03-04 21:26:00,21.3,11.4,27.01,WSW,248,7.6,30.8,65,0.00,,,0.00,VWS V14.01,2013-03-05 04:26:00,
2013-03-04 21:31:00,21.3,11.4,27.01,NW,315,18.1,18.1,65,0.00,,,0.00,VWS V14.01,2013-03-05 04:31:00,
2013-03-04 21:36:00,21.3,11.4,27.01,NW,315,18.3,22.1,65,0.00,,,0.00,VWS V14.01,2013-03-05 04:36:00,
2013-03-04 21:41:00,21.3,11.4,27.02,NNW,338,16.5,22.1,65,0.00,,,0.00,VWS V14.01,2013-03-05 04:41:00,
2013-03-04 21:46:00,21.3,11.4,27.02,NW,315,12.9,12.9,65,0.00,,,0.00,VWS V14.01,2013-03-05 04:46:00,
2013-03-04 21:51:00,21.3,11.4,27.03,West,270,8.5,12.9,65,0.00,,,0.00,VWS V14.01,2013-03-05 04:51:00,
2013-03-04 21:56:00,21.5,11.6,27.03,North,0,19.0,19.0,65,0.00,,,0.00,VWS V14.01,2013-03-05 04:56:00,
2013-03-04 22:00:00,21.5,11.6,27.03,North,0,17.8,19.0,65,0.00,,,0.00,VWS V14.01,2013-03-05 05:00:00,
2013-03-04 22:04:00,21.3,11.4,27.02,ENE,68,17.6,17.8,65,0.00,,,0.00,VWS V14.01,2013-03-05 05:04:00,
2013-03-04 22:08:00,21.3,11.4,27.03,NNE,22,15.8,29.0,65,0.00,,,0.00,VWS V14.01,2013-03-05 05:08:00,
2013-03-04 22:13:00,21.3,11.4,27.02,NNE,22,10.5,29.0,65,0.00,,,0.00,VWS V14.01,2013-03-05 05:13:00,
2013-03-04 22:18:00,21.3,11.4,27.03,North,0,14.7,14.7,65,0.00,,,0.00,VWS V14.01,2013-03-05 05:18:00,
2013-03-04 22:23:00,21.0,11.4,27.03,West,270,11.4,18.3,66,0.00,,,0.00,VWS V14.01,2013-03-05 05:23:00,
2013-03-04 22:28:00,20.8,11.9,27.02,NW,315,10.7,21.0,68,0.00,,,0.00,VWS V14.01,2013-03-05 05:28:00,
2013-03-04 22:33:00,20.3,11.8,27.02,North,0,14.3,14.3,69,0.00,,,0.00,VWS V14.01,2013-03-05 05:33:00,
2013-03-04 22:38:00,19.9,11.7,27.03,ENE,68,10.5,14.3,70,0.00,,,0.00,VWS V14.01,2013-03-05 05:38:00,
2013-03-04 22:43:00,19.7,11.5,27.03,North,0,12.9,14.3,70,0.00,,,0.00,VWS V14.01,2013-03-05 05:43:00,
2013-03-04 22:49:00,19.5,11.6,27.03,North,0,17.2,17.2,71,0.00,,,0.00,VWS V14.01,2013-03-05 05:49:00,
2013-03-04 22:54:00,19.5,11.6,27.03,West,270,7.3,17.2,71,0.00,,,0.00,VWS V14.01,2013-03-05 05:54:00,
2013-03-04 22:59:00,19.4,11.9,27.04,NNW,338,15.6,17.2,72,0.00,,,0.00,VWS V14.01,2013-03-05 05:59:00,
2013-03-04 23:04:00,19.2,11.7,27.04,NNW,338,14.9,14.9,72,0.00,,,0.00,VWS V14.01,2013-03-05 06:04:00,
2013-03-04 23:09:00,18.8,11.3,27.04,NNE,22,20.3,20.3,72,0.00,,,0.00,VWS V14.01,2013-03-05 06:09:00,
2013-03-04 23:14:00,18.5,11.0,27.04,North,0,14.9,23.9,72,0.00,,,0.00,VWS V14.01,2013-03-05 06:14:00,
2013-03-04 23:19:00,18.3,10.8,27.04,WSW,248,9.6,24.8,72,0.00,,,0.00,VWS V14.01,2013-03-05 06:19:00,
2013-03-04 23:24:00,18.1,10.6,27.05,NE,45,12.5,24.8,72,0.00,,,0.00,VWS V14.01,2013-03-05 06:24:00,
2013-03-04 23:29:00,17.9,10.4,27.05,NNW,338,8.0,24.8,72,0.00,,,0.00,VWS V14.01,2013-03-05 06:29:00,
2013-03-04 23:34:00,17.7,10.5,27.05,NNW,338,16.3,17.0,73,0.00,,,0.00,VWS V14.01,2013-03-05 06:34:00,
2013-03-04 23:39:00,17.4,10.2,27.05,North,0,17.8,17.8,73,0.00,,,0.00,VWS V14.01,2013-03-05 06:39:00,
2013-03-04 23:44:00,17.4,10.2,27.06,North,0,21.0,21.0,73,0.00,,,0.00,VWS V14.01,2013-03-05 06:44:00,
2013-03-04 23:49:00,17.4,10.2,27.05,NW,315,17.8,21.0,73,0.00,,,0.00,VWS V14.01,2013-03-05 06:49:00,
2013-03-04 23:54:00,17.4,10.2,27.05,North,0,15.6,21.0,73,0.00,,,0.00,VWS V14.01,2013-03-05 06:54:00,
2013-03-04 23:59:00,17.2,10.1,27.06,NNE,22,10.2,21.0,73,0.00,,,0.00,VWS V14.01,2013-03-05 06:59:00,